createdAt,value
2019-02-17T00:02:22.717Z,102498.66
2019-02-17T00:04:52.841Z,102500.30
2019-02-17T00:07:23.014Z,102501.07
2019-02-17T00:09:55.522Z,102508.81
2019-02-17T00:12:25.699Z,102495.58
2019-02-17T00:14:55.758Z,102504.17
2019-02-17T00:17:25.971Z,102497.11
2019-02-17T00:19:56.217Z,102497.45
2019-02-17T00:22:26.391Z,102500.75
2019-02-17T00:24:56.460Z,102500.20
2019-02-17T00:27:26.709Z,102496.09
2019-02-17T00:29:56.769Z,102498.09
2019-02-17T00:32:27.003Z,102491.11
2019-02-17T00:34:57.122Z,102488.42
2019-02-17T00:37:27.431Z,102488.77
2019-02-17T00:39:57.660Z,102487.88
2019-02-17T00:42:27.756Z,102483.52
2019-02-17T00:44:57.869Z,102486.92
2019-02-17T00:47:28.116Z,102487.69
2019-02-17T00:49:58.257Z,102480.97
2019-02-17T00:52:28.465Z,102488.16
2019-02-17T00:54:58.599Z,102485.36
2019-02-17T00:57:28.768Z,102482.13
2019-02-17T00:59:58.935Z,102482.77
2019-02-17T01:02:39.420Z,102481.80
2019-02-17T01:05:17.338Z,102480.34
2019-02-17T01:07:48.902Z,102481.52
2019-02-17T01:10:19.227Z,102482.70
2019-02-17T01:12:49.410Z,102492.61
2019-02-17T01:15:19.541Z,102486.44
2019-02-17T01:17:49.766Z,102491.98
2019-02-17T01:20:20.062Z,102481.11
2019-02-17T01:22:50.246Z,102479.25
2019-02-17T01:25:20.378Z,102476.58
2019-02-17T01:27:50.524Z,102478.71
2019-02-17T01:30:20.586Z,102481.66
2019-02-17T01:32:50.811Z,102473.30
2019-02-17T01:35:21.049Z,102477.45
2019-02-17T01:37:51.251Z,102483.42
2019-02-17T01:40:21.481Z,102482.95
2019-02-17T01:42:51.707Z,102481.07
2019-02-17T01:45:22.103Z,102481.91
2019-02-17T01:47:52.345Z,102480.48
2019-02-17T01:50:22.490Z,102484.22
2019-02-17T01:52:52.671Z,102484.97
2019-02-17T01:55:22.865Z,102478.75
2019-02-17T01:57:53.187Z,102475.52
2019-02-17T02:00:23.482Z,102472.28
2019-02-17T02:02:53.685Z,102469.55
2019-02-17T02:05:23.842Z,102465.42
2019-02-17T02:07:53.997Z,102464.05
2019-02-17T02:10:24.221Z,102469.50
2019-02-17T02:12:54.451Z,102471.22
2019-02-17T02:15:24.540Z,102465.88
2019-02-17T02:17:54.700Z,102461.42
2019-02-17T02:20:25.318Z,102457.86
2019-02-17T02:22:55.359Z,102455.50
2019-02-17T02:25:25.552Z,102449.75
2019-02-17T02:27:55.708Z,102455.70
2019-02-17T02:30:25.935Z,102453.41
2019-02-17T02:32:56.163Z,102452.34
2019-02-17T02:35:26.822Z,102446.93
2019-02-17T02:37:56.959Z,102455.48
2019-02-17T02:40:27.044Z,102457.11
2019-02-17T02:42:57.265Z,102455.67
2019-02-17T02:45:27.403Z,102455.12
2019-02-17T02:47:57.633Z,102451.05
2019-02-17T02:50:27.837Z,102443.20
2019-02-17T02:52:57.991Z,102453.05
2019-02-17T02:55:28.068Z,102449.30
2019-02-17T02:57:58.152Z,102450.46
2019-02-17T03:00:28.326Z,102445.51
2019-02-17T03:02:58.748Z,102445.84
2019-02-17T03:05:29.225Z,102448.30
2019-02-17T03:07:59.288Z,102447.74
2019-02-17T03:10:29.450Z,102440.69
2019-02-17T03:12:59.738Z,102437.92
2019-02-17T03:15:29.881Z,102432.99
2019-02-17T03:17:59.997Z,102431.47
2019-02-17T03:20:30.231Z,102433.84
2019-02-17T03:23:00.375Z,102430.18
2019-02-17T03:25:30.633Z,102437.42
2019-02-17T03:28:00.841Z,102429.06
2019-02-17T03:30:31.093Z,102431.02
2019-02-17T03:33:01.335Z,102430.05
2019-02-17T03:35:31.663Z,102421.70
2019-02-17T03:38:01.800Z,102419.75
2019-02-17T03:40:32.017Z,102416.18
2019-02-17T03:43:02.185Z,102416.92
2019-02-17T03:45:32.420Z,102421.09
2019-02-17T03:48:02.679Z,102419.19
2019-02-17T03:50:32.997Z,102425.63
2019-02-17T03:53:03.119Z,102420.61
2019-02-17T03:55:33.323Z,102411.85
2019-02-17T03:58:03.629Z,102415.75
2019-02-17T04:00:35.709Z,102408.70
2019-02-17T04:03:06.961Z,102417.19
2019-02-17T04:05:37.202Z,102420.94
2019-02-17T04:08:07.529Z,102419.48
2019-02-17T04:10:37.684Z,102414.95
2019-02-17T04:13:07.756Z,102415.73
2019-02-17T04:15:37.915Z,102411.38
2019-02-17T04:18:08.063Z,102407.33
2019-02-17T04:20:38.345Z,102409.02
2019-02-17T04:23:08.488Z,102404.55
2019-02-17T04:25:38.743Z,102401.91
2019-02-17T04:28:08.970Z,102409.19
2019-02-17T04:30:39.137Z,102408.06
2019-02-17T04:33:09.383Z,102398.80
2019-02-17T04:35:39.538Z,102400.83
2019-02-17T04:38:09.776Z,102398.73
2019-02-17T04:40:39.943Z,102393.45
2019-02-17T04:43:10.174Z,102388.27
2019-02-17T04:45:40.388Z,102375.55
2019-02-17T04:48:10.539Z,102383.34
2019-02-17T04:50:40.805Z,102382.04
2019-02-17T04:53:11.022Z,102376.76
2019-02-17T04:55:41.217Z,102373.60
2019-02-17T04:58:11.563Z,102373.05
2019-02-17T05:00:41.642Z,102369.84
2019-02-17T05:03:11.826Z,102368.91
2019-02-17T05:05:41.976Z,102366.22
2019-02-17T05:08:12.074Z,102357.38
2019-02-17T05:10:42.346Z,102359.72
2019-02-17T05:13:12.722Z,102355.27
2019-02-17T05:15:43.040Z,102355.59
2019-02-17T05:18:13.410Z,102353.82
2019-02-17T05:20:51.241Z,102348.22
2019-02-17T05:23:21.454Z,102345.22
2019-02-17T05:25:55.150Z,102343.45
2019-02-17T05:28:25.671Z,102335.89
2019-02-17T05:30:58.298Z,102338.48
2019-02-17T05:33:28.317Z,102335.01
2019-02-17T05:35:58.964Z,102335.01
2019-02-17T05:38:31.062Z,102333.72
2019-02-17T05:41:01.763Z,102329.00
2019-02-17T05:43:33.763Z,102328.94
2019-02-17T05:46:04.259Z,102330.97
2019-02-17T05:48:34.728Z,102327.88
2019-02-17T05:51:05.143Z,102317.82
2019-02-17T05:53:35.666Z,102320.27
2019-02-17T05:56:07.379Z,102314.57
2019-02-17T05:58:38.030Z,102312.56
2019-02-17T06:01:08.590Z,102308.42
2019-02-17T06:03:38.859Z,102309.88
2019-02-17T06:06:09.279Z,102310.05
2019-02-17T06:08:39.753Z,102318.80
2019-02-17T06:11:10.047Z,102315.23
2019-02-17T06:13:40.590Z,102319.84
2019-02-17T06:16:11.223Z,102316.69
2019-02-17T06:18:41.755Z,102315.20
2019-02-17T06:21:12.195Z,102312.05
2019-02-17T06:23:42.621Z,102307.28
2019-02-17T06:26:13.176Z,102298.37
2019-02-17T06:28:44.689Z,102310.41
2019-02-17T06:31:15.249Z,102316.98
2019-02-17T06:33:45.680Z,102314.71
2019-02-17T06:36:15.988Z,102316.33
2019-02-17T06:38:46.525Z,102314.05
2019-02-17T06:41:17.042Z,102313.11
2019-02-17T06:43:47.541Z,102310.42
2019-02-17T06:46:21.900Z,102312.13
2019-02-17T06:48:52.399Z,102307.17
2019-02-17T06:51:22.815Z,102310.17
2019-02-17T06:53:53.340Z,102308.21
2019-02-17T06:56:54.708Z,102311.37
2019-02-17T06:59:25.357Z,102317.44
2019-02-17T07:01:55.838Z,102320.03
2019-02-17T07:04:48.378Z,102322.14
2019-02-17T07:07:19.046Z,102324.42
2019-02-17T07:09:49.491Z,102327.02
2019-02-17T07:12:20.029Z,102325.72
2019-02-17T07:14:50.681Z,102326.59
2019-02-17T07:17:21.136Z,102323.12
2019-02-17T07:19:51.575Z,102320.85
2019-02-17T07:22:22.662Z,102328.31
2019-02-17T07:24:53.040Z,102320.34
2019-02-17T07:27:23.671Z,102324.16
2019-02-17T07:29:55.442Z,102328.15
2019-02-17T07:32:25.900Z,102323.06
2019-02-17T07:34:59.845Z,102321.51
2019-02-17T07:37:33.557Z,102321.76
2019-02-17T07:40:02.981Z,102318.05
2019-02-17T07:42:36.130Z,102313.69
2019-02-17T07:45:07.110Z,102315.38
2019-02-17T07:47:40.648Z,102314.42
2019-02-17T07:50:14.328Z,102323.52
2019-02-17T07:52:46.458Z,102313.44
2019-02-17T07:55:17.125Z,102317.57
2019-02-17T07:57:47.783Z,102316.93
2019-02-17T08:00:18.378Z,102318.80
2019-02-17T08:02:49.665Z,102318.29
2019-02-17T08:05:22.008Z,102319.41
2019-02-17T08:07:52.764Z,102318.48
2019-02-17T08:10:23.538Z,102319.69
2019-02-17T08:12:54.101Z,102317.00
2019-02-17T08:15:24.504Z,102308.97
2019-02-17T08:17:54.635Z,102313.73
2019-02-17T08:20:24.874Z,102307.94
2019-02-17T08:22:55.098Z,102313.86
2019-02-17T08:25:25.343Z,102303.20
2019-02-17T08:27:55.539Z,102306.02
2019-02-17T08:30:25.794Z,102305.45
2019-02-17T08:32:56.048Z,102303.48
2019-02-17T08:35:29.224Z,102303.53
2019-02-17T08:37:59.428Z,102300.23
2019-02-17T08:40:29.729Z,102296.92
2019-02-17T08:43:00.281Z,102302.34
2019-02-17T08:45:30.630Z,102297.03
2019-02-17T08:48:01.042Z,102288.70
2019-02-17T08:50:31.233Z,102294.70
2019-02-17T08:53:01.685Z,102297.09
2019-02-17T08:55:31.877Z,102296.89
2019-02-17T08:58:02.061Z,102296.30
2019-02-17T09:00:32.254Z,102294.37
2019-02-17T09:03:02.671Z,102290.77
2019-02-17T09:05:32.870Z,102287.20
2019-02-17T09:08:05.418Z,102292.05
2019-02-17T09:10:35.697Z,102299.09
2019-02-17T09:13:06.704Z,102289.16
2019-02-17T09:15:36.931Z,102290.10
2019-02-17T09:18:07.304Z,102294.95
2019-02-17T09:20:37.439Z,102292.27
2019-02-17T09:23:07.550Z,102291.70
2019-02-17T09:25:37.792Z,102295.00
2019-02-17T09:28:08.085Z,102287.03
2019-02-17T09:30:38.327Z,102298.17
2019-02-17T09:33:10.422Z,102295.34
2019-02-17T09:35:40.713Z,102299.97
2019-02-17T09:38:10.969Z,102295.91
2019-02-17T09:40:41.300Z,102304.86
2019-02-17T09:43:11.548Z,102298.53
2019-02-17T09:45:47.053Z,102295.77
2019-02-17T09:48:17.163Z,102297.39
2019-02-17T09:50:47.425Z,102287.69
2019-02-17T09:53:17.728Z,102290.50
2019-02-17T09:55:47.934Z,102292.48
2019-02-17T09:58:18.407Z,102288.40
2019-02-17T10:00:48.552Z,102287.87
2019-02-17T10:03:18.714Z,102285.96
2019-02-17T10:05:48.893Z,102284.55
2019-02-17T10:08:19.047Z,102280.84
2019-02-17T10:10:49.435Z,102281.95
2019-02-17T10:13:19.502Z,102274.79
2019-02-17T10:15:52.466Z,102274.99
2019-02-17T10:18:22.603Z,102270.52
2019-02-17T10:20:52.830Z,102265.11
2019-02-17T10:23:22.979Z,102271.94
2019-02-17T10:25:56.636Z,102264.36
2019-02-17T10:28:26.956Z,102261.61
2019-02-17T10:30:57.178Z,102259.22
2019-02-17T10:33:27.546Z,102253.40
2019-02-17T10:35:57.642Z,102251.85
2019-02-17T10:38:28.914Z,102249.00
2019-02-17T10:40:58.991Z,102255.34
2019-02-17T10:43:29.203Z,102251.64
2019-02-17T10:45:59.365Z,102245.34
2019-02-17T10:48:29.657Z,102249.98
2019-02-17T10:51:00.092Z,102239.01
2019-02-17T10:53:30.225Z,102232.84
2019-02-17T10:56:00.623Z,102229.63
2019-02-17T10:58:30.868Z,102225.05
2019-02-17T11:01:00.986Z,102221.38
2019-02-17T11:03:31.285Z,102218.55
2019-02-17T11:06:04.467Z,102213.58
2019-02-17T11:08:34.822Z,102211.66
2019-02-17T11:11:07.630Z,102211.03
2019-02-17T11:13:37.846Z,102205.55
2019-02-17T11:16:08.123Z,102199.64
2019-02-17T11:18:38.344Z,102197.25
2019-02-17T11:21:08.526Z,102196.14
2019-02-17T11:23:38.832Z,102189.00
2019-02-17T11:26:11.137Z,102190.57
2019-02-17T11:28:41.420Z,102186.89
2019-02-17T11:31:40.572Z,102184.02
2019-02-17T11:34:10.914Z,102183.42
2019-02-17T11:36:41.371Z,102172.39
2019-02-17T11:39:27.225Z,102169.60
2019-02-17T11:41:57.317Z,102171.19
2019-02-17T11:44:27.681Z,102167.99
2019-02-17T11:47:00.362Z,102161.73
2019-02-17T11:49:30.514Z,102163.68
2019-02-17T11:52:08.878Z,102155.17
2019-02-17T11:54:39.096Z,102150.55
2019-02-17T11:57:15.473Z,102147.23
2019-02-17T11:59:45.594Z,102143.04
2019-02-17T12:02:24.719Z,102139.27
2019-02-17T12:04:48.007Z,102135.11
2019-02-17T12:07:18.238Z,102136.70
2019-02-17T12:09:48.464Z,102133.44
2019-02-17T12:12:18.628Z,102132.36
2019-02-17T12:14:48.956Z,102126.48
2019-02-17T12:17:19.157Z,102124.55
2019-02-17T12:19:49.347Z,102123.44
2019-02-17T12:22:36.489Z,102113.95
2019-02-17T12:25:11.350Z,102113.67
2019-02-17T12:27:55.102Z,102116.42
2019-02-17T12:30:26.258Z,102111.31
2019-02-17T12:32:58.313Z,102112.75
2019-02-17T12:35:28.420Z,102107.63
2019-02-17T12:37:58.570Z,102104.22
2019-02-17T12:40:28.839Z,102100.86
2019-02-17T12:43:09.507Z,102095.25
2019-02-17T12:45:39.847Z,102094.03
2019-02-17T12:48:10.188Z,102092.39
2019-02-17T12:50:40.318Z,102085.91
2019-02-17T12:53:10.646Z,102076.78
2019-02-17T12:55:40.932Z,102075.58
2019-02-17T12:58:11.119Z,102071.69
2019-02-17T13:00:44.627Z,102072.64
2019-02-17T13:03:15.028Z,102071.83
2019-02-17T13:05:45.315Z,102073.71
2019-02-17T13:08:15.592Z,102069.40
2019-02-17T13:10:47.851Z,102067.72
2019-02-17T13:13:18.131Z,102057.31
2019-02-17T13:15:48.343Z,102054.34
2019-02-17T13:18:18.778Z,102053.37
2019-02-17T13:20:49.028Z,102058.34
2019-02-17T13:23:19.208Z,102054.02
2019-02-17T13:25:51.548Z,102047.37
2019-02-17T13:28:23.538Z,102040.45
2019-02-17T13:30:53.882Z,102031.86
2019-02-17T13:33:24.165Z,102032.08
2019-02-17T13:35:57.323Z,102027.83
2019-02-17T13:38:27.744Z,102031.72
2019-02-17T13:41:00.946Z,102032.19
2019-02-17T13:43:34.331Z,102023.44
2019-02-17T13:46:07.215Z,102027.83
2019-02-17T13:48:38.848Z,102013.38
2019-02-17T13:51:11.256Z,102010.43
2019-02-17T13:53:44.390Z,102007.78
2019-02-17T13:56:14.620Z,102011.34
2019-02-17T13:58:45.353Z,102010.49
2019-02-17T14:01:15.686Z,102010.41
2019-02-17T14:03:48.951Z,102006.30
2019-02-17T14:06:17.987Z,102007.01
2019-02-17T14:08:49.813Z,102007.23
2019-02-17T14:11:20.136Z,102011.30
2019-02-17T14:13:50.547Z,102002.14
2019-02-17T14:16:20.790Z,102003.53
2019-02-17T14:18:51.071Z,102004.09
2019-02-17T14:21:22.628Z,102005.02
2019-02-17T14:23:55.804Z,101995.39
2019-02-17T14:26:26.179Z,101994.57
2019-02-17T14:28:56.449Z,101994.62
2019-02-17T14:31:26.767Z,101984.07
2019-02-17T14:33:58.805Z,101988.05
2019-02-17T14:36:32.054Z,101985.00
2019-02-17T14:39:04.952Z,101983.69
2019-02-17T14:41:35.363Z,101978.87
2019-02-17T14:44:09.239Z,101986.84
2019-02-17T14:46:40.788Z,101985.05
2019-02-17T14:49:11.196Z,101980.66
2019-02-17T14:51:41.428Z,101980.21
2019-02-17T14:54:11.653Z,101979.34
2019-02-17T14:56:42.206Z,101978.02
2019-02-17T14:59:12.647Z,101978.02
2019-02-17T15:01:43.121Z,101980.66
2019-02-17T15:04:13.651Z,101972.75
2019-02-17T15:06:49.043Z,101967.00
2019-02-17T15:09:19.573Z,101978.91
2019-02-17T15:11:52.394Z,101973.19
2019-02-17T15:14:30.043Z,101966.16
2019-02-17T15:17:01.107Z,101969.66
2019-02-17T15:19:37.930Z,101969.26
2019-02-17T15:22:11.312Z,101964.41
2019-02-17T15:24:42.721Z,101970.16
2019-02-17T15:27:18.760Z,101963.56
2019-02-17T15:29:51.198Z,101963.14
2019-02-17T15:32:22.109Z,101971.53
2019-02-17T15:34:52.964Z,101970.20
2019-02-17T15:37:26.368Z,101965.37
2019-02-17T15:39:57.888Z,101955.27
2019-02-17T15:42:38.883Z,101959.63
2019-02-17T15:45:56.844Z,101957.44
2019-02-17T15:48:42.292Z,101950.84
2019-02-17T15:51:12.853Z,101948.17
2019-02-17T15:53:43.648Z,101949.05
2019-02-17T15:56:26.716Z,101944.19
2019-02-17T15:59:07.372Z,101942.41
2019-02-17T16:14:53.003Z,101933.58
2019-02-17T16:17:23.432Z,101929.58
2019-02-17T16:19:53.896Z,101932.20
2019-02-17T16:22:27.013Z,101935.16
2019-02-17T16:25:02.929Z,101925.86
2019-02-17T16:27:45.098Z,101919.18
2019-02-17T16:30:24.052Z,101910.30
2019-02-17T16:33:10.158Z,101899.21
2019-02-17T16:35:40.505Z,101895.57
2019-02-17T16:38:12.782Z,101891.89
2019-02-17T16:40:46.611Z,101906.62
2019-02-17T16:43:20.230Z,101912.16
2019-02-17T16:45:50.912Z,101912.00
2019-02-17T16:48:21.500Z,101916.16
2019-02-17T16:50:51.947Z,101919.04
2019-02-17T16:53:24.365Z,101919.34
2019-02-17T16:55:55.711Z,101911.25
2019-02-17T16:58:26.432Z,101913.76
2019-02-17T17:00:57.059Z,101910.16
2019-02-17T17:03:27.587Z,101910.47
2019-02-17T17:05:58.428Z,101915.63
2019-02-17T17:08:29.189Z,101915.87
2019-02-17T17:11:00.417Z,101915.70
2019-02-17T17:13:33.690Z,101919.05
2019-02-17T17:16:04.364Z,101915.84
2019-02-17T17:18:35.184Z,101917.88
2019-02-17T17:21:05.754Z,101919.52
2019-02-17T17:23:45.444Z,101921.12
2019-02-17T17:26:16.089Z,101923.14
2019-02-17T17:28:46.699Z,101924.38
2019-02-17T17:31:17.301Z,101924.26
2019-02-17T17:33:47.996Z,101918.92
2019-02-17T17:36:18.647Z,101928.85
2019-02-17T17:38:52.555Z,101932.27
2019-02-17T17:41:26.462Z,101940.03
2019-02-17T17:43:57.060Z,101936.42
2019-02-17T17:46:27.854Z,101937.25
2019-02-17T17:49:07.089Z,101941.56
2019-02-17T17:51:52.780Z,101939.73
2019-02-17T17:54:27.056Z,101941.77
2019-02-17T17:56:59.668Z,101945.57
2019-02-17T18:00:50.489Z,101947.22
2019-02-17T18:03:23.093Z,101950.14
2019-02-17T18:05:53.353Z,101945.91
2019-02-17T18:08:23.654Z,101953.16
2019-02-17T18:11:04.059Z,101954.86
2019-02-17T18:13:34.168Z,101952.53
2019-02-17T18:16:04.592Z,101942.77
2019-02-17T18:18:34.716Z,101949.60
2019-02-17T18:21:04.994Z,101949.98
2019-02-17T18:23:35.147Z,101947.20
2019-02-17T18:26:06.531Z,101950.16
2019-02-17T18:28:36.726Z,101949.02
2019-02-17T18:31:07.036Z,101957.13
2019-02-17T18:33:40.074Z,101950.81
2019-02-17T18:36:10.530Z,101956.27
2019-02-17T18:38:43.394Z,101957.83
2019-02-17T18:41:13.993Z,101955.92
2019-02-17T18:43:44.211Z,101953.62
2019-02-17T18:46:14.504Z,101959.16
2019-02-17T18:48:44.771Z,101959.42
2019-02-17T18:51:15.134Z,101961.44
2019-02-17T18:53:45.299Z,101857.08
2019-02-17T18:56:15.767Z,101951.17
2019-02-17T18:58:45.997Z,101951.91
2019-02-17T19:01:16.389Z,101952.18
2019-02-17T19:03:47.254Z,101952.11
2019-02-17T19:06:17.866Z,101943.81
2019-02-17T19:08:48.733Z,101944.21
2019-02-17T19:11:19.699Z,101944.19
2019-02-17T19:13:50.502Z,101950.75
2019-02-17T19:16:21.186Z,101950.37
2019-02-17T19:18:51.825Z,101942.03
2019-02-17T19:21:22.408Z,101944.59
2019-02-17T19:23:52.877Z,101946.70
2019-02-17T19:26:23.511Z,101944.52
2019-02-17T19:28:53.975Z,101946.58
2019-02-17T19:31:24.569Z,101946.02
2019-02-17T19:33:57.577Z,101942.76
2019-02-17T19:36:28.233Z,101941.72
2019-02-17T19:38:58.736Z,101945.56
2019-02-17T19:41:29.392Z,101950.59
2019-02-17T19:43:59.884Z,101950.84
2019-02-17T19:46:30.370Z,101949.41
2019-02-17T19:49:00.834Z,101945.23
2019-02-17T19:51:31.494Z,101958.29
2019-02-17T19:54:02.078Z,101950.27
2019-02-17T19:56:32.583Z,101949.31
2019-02-17T19:59:03.206Z,101951.75
2019-02-17T20:01:34.444Z,101948.23
2019-02-17T20:04:33.119Z,101948.61
2019-02-17T20:07:03.977Z,101944.63
2019-02-17T20:09:34.451Z,101948.86
2019-02-17T20:12:05.079Z,101943.56
2019-02-17T20:14:35.619Z,101940.81
2019-02-17T20:17:07.061Z,101949.01
2019-02-17T20:19:37.615Z,101947.13
2019-02-17T20:22:08.406Z,101934.68
2019-02-17T20:24:39.104Z,101939.39
2019-02-17T20:27:09.624Z,101945.52
2019-02-17T20:29:40.075Z,101951.98
2019-02-17T20:32:10.466Z,101951.41
2019-02-17T20:34:40.841Z,101948.23
2019-02-17T20:39:57.517Z,101958.21
2019-02-17T20:42:28.502Z,101954.37
2019-02-17T20:44:59.493Z,101958.07
2019-02-17T20:47:30.141Z,101951.77
2019-02-17T20:50:00.821Z,101956.47
2019-02-17T20:52:32.277Z,101953.25
2019-02-17T20:55:02.891Z,101954.86
2019-02-17T20:57:33.410Z,101948.25
2019-02-17T21:00:04.120Z,101950.73
2019-02-17T21:02:34.639Z,101954.55
2019-02-17T21:05:05.658Z,101959.63
2019-02-17T21:07:36.419Z,101954.33
2019-02-17T21:10:07.856Z,101958.82
2019-02-17T21:12:38.471Z,101952.66
2019-02-17T21:15:09.995Z,101953.09
2019-02-17T21:17:40.611Z,101958.17
2019-02-17T21:20:11.392Z,101952.42
2019-02-17T21:22:41.813Z,101957.20
2019-02-17T21:25:12.429Z,101944.80
2019-02-17T21:27:42.952Z,101950.41
2019-02-17T21:30:13.790Z,101951.19
2019-02-17T21:32:44.234Z,101950.67
2019-02-17T21:35:15.098Z,101949.72
2019-02-17T21:37:45.700Z,101943.57
2019-02-17T21:40:17.783Z,101948.33
2019-02-17T21:42:48.275Z,101941.33
2019-02-17T21:45:18.824Z,101941.75
2019-02-17T21:47:49.523Z,101941.33
2019-02-17T21:50:20.087Z,101941.03
2019-02-17T21:52:50.894Z,101951.52
2019-02-17T21:55:21.425Z,101942.82
2019-02-17T21:57:51.969Z,101946.40
2019-02-17T22:00:22.540Z,101947.80
2019-02-17T22:02:53.027Z,101951.34
2019-02-17T22:05:23.763Z,101953.14
2019-02-17T22:07:54.211Z,101947.50
2019-02-17T22:10:24.837Z,101952.26
2019-02-17T22:12:55.529Z,101955.68
2019-02-17T22:18:29.800Z,101950.78
2019-02-17T22:21:00.442Z,101956.10
2019-02-17T22:23:30.938Z,101951.00
2019-02-17T22:26:01.481Z,101957.97
2019-02-17T22:28:32.037Z,101952.95
2019-02-17T22:31:02.534Z,101954.25
2019-02-17T22:33:33.202Z,101948.23
2019-02-17T22:36:03.638Z,101951.75
2019-02-17T22:38:34.672Z,101949.20
2019-02-17T22:41:06.231Z,101946.66
2019-02-17T22:43:36.839Z,101949.79
2019-02-17T22:46:07.690Z,101945.97
2019-02-17T22:48:38.183Z,101946.04
2019-02-17T22:51:08.823Z,101950.02
2019-02-17T22:53:43.528Z,101946.50
2019-02-17T22:56:12.089Z,101958.28
2019-02-17T22:58:42.985Z,101957.83
2019-02-17T23:01:20.224Z,101955.95
2019-02-17T23:03:52.409Z,101961.73
2019-02-17T23:06:23.170Z,101952.62
2019-02-17T23:08:53.768Z,101954.70
2019-02-17T23:11:24.333Z,101955.16
2019-02-17T23:13:54.552Z,101947.28
2019-02-17T23:16:24.904Z,101945.97
2019-02-17T23:18:55.249Z,101939.83
2019-02-17T23:21:25.592Z,101934.25
2019-02-17T23:23:56.124Z,101933.08
2019-02-17T23:26:26.413Z,101937.02
2019-02-17T23:28:56.722Z,101936.62
2019-02-17T23:31:27.022Z,101934.95
2019-02-17T23:33:57.375Z,101936.81
2019-02-17T23:36:27.467Z,101946.15
2019-02-17T23:38:57.739Z,101950.73
2019-02-17T23:41:27.903Z,101947.03
2019-02-17T23:43:58.208Z,101949.86
2019-02-17T23:46:28.470Z,101952.19
2019-02-17T23:48:58.607Z,101954.95
2019-02-17T23:51:28.687Z,101949.00
2019-02-17T23:53:58.991Z,101955.67
2019-02-17T23:56:29.293Z,101954.37
2019-02-17T23:58:59.451Z,101959.59
